Maryland Heights, Missouri
Current Conditions -  °F | °C
As of 1:51 PM on Monday 26 Jan 2015 (Local Time) from KSTL Reporting Station
Broken Clouds Broken Clouds  
Wind Chill: 31°   Ceiling: 7000
Heat Index: 37°   Visibility: 10mi
Dew Point: 27°   Wind: 8mph
Humidity: 67%   Direction: 190°S
Pressure: 29.88"   Gusts: NA
Location:  38.72°N, 90.44°W
Report Text: KSTL 261951Z 19007KT 10SM BKN070 03/M03 A2988 RMK AO2 SNE07 SLP129 P0000 T00281028
Loading
Personal Weather Stations






























Interactive Weather Map New forecast layout! Learn more

10-Day Weather Forecast

Advertisements
Track Severe Weather on mobile